createdAt,value
2022-10-20T00:02:00.808Z,1.90
2022-10-20T00:04:29.829Z,1.86
2022-10-20T00:06:57.694Z,1.88
2022-10-20T00:09:25.875Z,1.76
2022-10-20T00:11:55.342Z,1.76
2022-10-20T00:14:23.287Z,1.62
2022-10-20T00:16:51.868Z,1.48
2022-10-20T00:19:19.850Z,1.43
2022-10-20T00:21:47.777Z,1.24
2022-10-20T00:24:15.877Z,1.20
2022-10-20T00:26:43.751Z,1.14
2022-10-20T00:29:13.083Z,1.18
2022-10-20T00:31:41.023Z,1.17
2022-10-20T00:34:09.090Z,1.26
2022-10-20T00:36:37.030Z,1.21
2022-10-20T00:39:06.710Z,1.16
2022-10-20T00:41:35.555Z,1.00
2022-10-20T00:44:04.983Z,1.00
2022-10-20T00:46:40.003Z,0.89
2022-10-20T00:49:14.251Z,0.97
2022-10-20T00:51:43.015Z,0.90
2022-10-20T00:54:14.911Z,0.91
2022-10-20T00:56:45.390Z,0.90
2022-10-20T00:59:16.106Z,0.77
2022-10-20T01:01:46.788Z,0.69
2022-10-20T01:04:15.226Z,0.66
2022-10-20T01:06:43.076Z,0.59
2022-10-20T01:09:11.479Z,0.55
2022-10-20T01:11:50.422Z,0.50
2022-10-20T01:14:34.249Z,0.57
2022-10-20T01:17:13.814Z,0.56
2022-10-20T01:20:22.797Z,0.67
2022-10-20T01:23:12.115Z,0.77
2022-10-20T01:25:55.964Z,0.70
2022-10-20T01:28:33.724Z,0.51
2022-10-20T01:31:06.195Z,0.55
2022-10-20T01:33:41.395Z,0.49
2022-10-20T01:36:15.421Z,0.40
2022-10-20T01:38:48.713Z,0.34
2022-10-20T01:41:23.357Z,0.34
2022-10-20T01:43:54.660Z,0.28
2022-10-20T01:46:26.108Z,0.21
2022-10-20T01:48:55.603Z,0.20
2022-10-20T01:51:23.590Z,0.25
2022-10-20T01:53:51.445Z,0.09
2022-10-20T01:56:27.018Z,0.18
2022-10-20T01:59:20.728Z,0.09
2022-10-20T02:02:06.795Z,0.21
2022-10-20T02:04:49.672Z,0.21
2022-10-20T02:07:24.667Z,0.19
2022-10-20T02:09:56.924Z,0.18
2022-10-20T02:12:28.839Z,0.15
2022-10-20T02:14:59.353Z,0.15
2022-10-20T02:17:28.084Z,0.12
2022-10-20T02:19:58.053Z,0.11
2022-10-20T02:22:27.178Z,0.23
2022-10-20T02:24:55.172Z,0.25
2022-10-20T02:27:28.241Z,0.18
2022-10-20T02:30:02.030Z,0.16
2022-10-20T02:32:33.653Z,0.22
2022-10-20T02:35:06.645Z,0.25
2022-10-20T02:37:35.768Z,0.29
2022-10-20T02:40:05.148Z,0.20
2022-10-20T02:42:33.151Z,0.18
2022-10-20T02:45:02.745Z,0.03
2022-10-20T02:47:30.634Z,0.01
2022-10-20T02:49:58.612Z,-0.04
2022-10-20T02:52:26.571Z,-0.14
2022-10-20T02:54:54.511Z,-0.17
2022-10-20T02:57:22.410Z,-0.20
2022-10-20T02:59:50.309Z,-0.29
2022-10-20T03:02:19.731Z,-0.41
2022-10-20T03:04:47.574Z,-0.54
2022-10-20T03:07:15.831Z,-0.48
2022-10-20T03:09:44.224Z,-0.54
2022-10-20T03:12:12.399Z,-0.53
2022-10-20T03:14:42.233Z,-0.51
2022-10-20T03:17:10.135Z,-0.52
2022-10-20T03:19:39.562Z,-0.50
2022-10-20T03:22:07.485Z,-0.59
2022-10-20T03:24:35.308Z,-0.68
2022-10-20T03:27:03.268Z,-0.74
2022-10-20T03:29:31.147Z,-0.81
2022-10-20T03:31:59.058Z,-0.90
2022-10-20T03:34:27.336Z,-0.90
2022-10-20T03:36:56.579Z,-0.93
2022-10-20T03:39:24.496Z,-0.95
2022-10-20T03:41:54.366Z,-1.02
2022-10-20T03:44:22.346Z,-1.06
2022-10-20T03:46:50.401Z,-1.07
2022-10-20T03:49:18.414Z,-1.11
2022-10-20T03:51:46.325Z,-1.06
2022-10-20T03:54:15.677Z,-1.09
2022-10-20T03:56:43.742Z,-0.91
2022-10-20T03:59:12.436Z,-0.87
2022-10-20T04:01:40.435Z,-0.87
2022-10-20T04:04:08.421Z,-0.79
2022-10-20T04:06:36.374Z,-0.75
2022-10-20T04:09:04.969Z,-0.81
2022-10-20T04:11:34.544Z,-0.80
2022-10-20T04:14:06.274Z,-0.82
2022-10-20T04:16:42.082Z,-0.84
2022-10-20T04:19:10.206Z,-0.99
2022-10-20T04:21:38.255Z,-1.05
2022-10-20T04:24:07.374Z,-1.11
2022-10-20T04:26:36.661Z,-1.24
2022-10-20T04:29:04.840Z,-1.29
2022-10-20T04:31:32.660Z,-1.32
2022-10-20T04:34:00.565Z,-1.34
2022-10-20T04:36:28.652Z,-1.39
2022-10-20T04:38:56.810Z,-1.34
2022-10-20T04:41:24.645Z,-1.35
2022-10-20T04:43:54.146Z,-1.38
2022-10-20T04:46:22.563Z,-1.50
2022-10-20T04:48:50.500Z,-1.31
2022-10-20T04:51:21.288Z,-1.29
2022-10-20T04:53:49.458Z,-1.36
2022-10-20T04:56:19.462Z,-1.49
2022-10-20T04:58:49.178Z,-1.52
2022-10-20T05:01:20.042Z,-1.53
2022-10-20T05:03:48.185Z,-1.63
2022-10-20T05:06:18.081Z,-1.52
2022-10-20T05:08:48.143Z,-1.47
2022-10-20T05:11:18.309Z,-1.49
2022-10-20T05:13:46.324Z,-1.58
2022-10-20T05:16:14.998Z,-1.56
2022-10-20T05:18:45.470Z,-1.70
2022-10-20T05:21:19.061Z,-1.64
2022-10-20T05:23:47.379Z,-1.60
2022-10-20T05:26:17.511Z,-1.44
2022-10-20T05:28:47.045Z,-1.45
2022-10-20T05:31:16.581Z,-1.35
2022-10-20T05:33:47.851Z,-1.45
2022-10-20T05:36:19.449Z,-1.54
2022-10-20T05:38:50.334Z,-1.45
2022-10-20T05:41:20.270Z,-1.47
2022-10-20T05:43:50.260Z,-1.51
2022-10-20T05:46:19.026Z,-1.53
2022-10-20T05:48:48.789Z,-1.48
2022-10-20T05:51:19.087Z,-1.53
2022-10-20T05:53:48.133Z,-1.50
2022-10-20T05:56:23.173Z,-1.48
2022-10-20T05:58:51.182Z,-1.52
2022-10-20T06:01:23.956Z,-1.50
2022-10-20T06:03:54.898Z,-1.56
2022-10-20T06:06:25.709Z,-1.49
2022-10-20T06:08:54.261Z,-1.61
2022-10-20T06:11:23.200Z,-1.41
2022-10-20T06:13:53.026Z,-1.47
2022-10-20T06:16:23.521Z,-1.44
2022-10-20T06:18:53.833Z,-1.27
2022-10-20T06:21:23.568Z,-1.21
2022-10-20T06:23:52.169Z,-1.21
2022-10-20T06:26:22.599Z,-1.13
2022-10-20T06:28:52.502Z,-0.89
2022-10-20T06:31:22.218Z,-0.69
2022-10-20T06:33:50.459Z,-0.52
2022-10-20T06:36:21.178Z,-0.39
2022-10-20T06:38:49.875Z,-0.24
2022-10-20T06:41:18.840Z,-0.07
2022-10-20T06:43:46.720Z,-0.03
2022-10-20T06:46:17.410Z,0.11
2022-10-20T06:48:45.799Z,0.08
2022-10-20T06:51:16.015Z,0.17
2022-10-20T06:53:46.944Z,0.19
2022-10-20T06:56:16.752Z,0.26
2022-10-20T06:58:47.382Z,0.37
2022-10-20T07:01:17.060Z,0.55
2022-10-20T07:03:46.669Z,0.37
2022-10-20T07:06:16.406Z,0.63
2022-10-20T07:08:45.748Z,0.80
2022-10-20T07:11:15.595Z,0.94
2022-10-20T07:13:44.180Z,1.13
2022-10-20T07:16:13.982Z,1.30
2022-10-20T07:21:19.306Z,1.91
2022-10-20T07:23:50.002Z,2.33
2022-10-20T07:26:20.172Z,3.08
2022-10-20T07:28:53.333Z,3.82
2022-10-20T07:31:25.541Z,4.64
2022-10-20T07:34:07.112Z,5.46
2022-10-20T07:36:43.797Z,6.16
2022-10-20T07:39:14.474Z,6.86
2022-10-20T07:41:44.133Z,7.14
2022-10-20T07:44:12.036Z,7.24
2022-10-20T07:46:39.922Z,7.27
2022-10-20T07:51:55.711Z,7.75
2022-10-20T07:54:25.231Z,8.19
2022-10-20T07:56:53.252Z,8.39
2022-10-20T07:59:21.232Z,8.72
2022-10-20T08:01:49.473Z,9.02
2022-10-20T08:04:17.344Z,9.33
2022-10-20T08:06:47.200Z,9.75
2022-10-20T08:09:15.162Z,10.13
2022-10-20T08:11:44.537Z,10.33
2022-10-20T08:14:15.922Z,10.46
2022-10-20T08:16:47.633Z,10.77
2022-10-20T08:19:23.891Z,11.02
2022-10-20T08:21:54.008Z,11.41
2022-10-20T08:24:21.974Z,11.79
2022-10-20T08:26:51.462Z,12.17
2022-10-20T08:29:19.403Z,12.52
2022-10-20T08:31:47.297Z,12.85
2022-10-20T08:34:15.185Z,13.06
2022-10-20T08:36:43.238Z,13.01
2022-10-20T08:39:11.058Z,13.14
2022-10-20T08:42:03.187Z,13.38
2022-10-20T08:44:35.038Z,13.98
2022-10-20T08:47:05.851Z,14.24
2022-10-20T08:49:36.233Z,14.67
2022-10-20T08:52:04.991Z,15.15
2022-10-20T08:54:35.485Z,15.79
2022-10-20T08:57:03.429Z,16.18
2022-10-20T08:59:39.197Z,16.92
2022-10-20T09:02:16.251Z,16.48
2022-10-20T09:04:50.177Z,16.97
2022-10-20T09:07:26.602Z,17.34
2022-10-20T09:10:02.974Z,17.76
2022-10-20T09:12:32.860Z,18.13
2022-10-20T09:15:02.161Z,18.12
2022-10-20T09:17:30.314Z,18.45
2022-10-20T09:20:01.248Z,18.25
2022-10-20T09:22:35.675Z,18.46
2022-10-20T09:25:06.114Z,18.84
2022-10-20T09:27:36.629Z,19.59
2022-10-20T09:30:18.385Z,20.14
2022-10-20T09:32:48.147Z,20.71
2022-10-20T09:35:23.143Z,21.31
2022-10-20T09:38:01.484Z,21.72
2022-10-20T09:43:00.951Z,23.33
2022-10-20T09:45:32.715Z,24.18
2022-10-20T09:48:06.569Z,23.42
2022-10-20T09:50:38.315Z,23.13
2022-10-20T09:53:16.792Z,23.44
2022-10-20T09:55:49.068Z,24.90
2022-10-20T09:58:23.157Z,24.63
2022-10-20T10:01:01.490Z,25.25
2022-10-20T10:03:30.046Z,24.90
2022-10-20T10:06:00.378Z,25.32
2022-10-20T10:08:42.002Z,24.43
2022-10-20T10:11:18.011Z,25.26
2022-10-20T10:13:47.778Z,24.52
2022-10-20T10:16:21.995Z,24.16
2022-10-20T10:18:58.934Z,24.40
2022-10-20T10:21:27.534Z,24.21
2022-10-20T10:23:57.572Z,23.51
2022-10-20T10:32:26.468Z,23.59
2022-10-20T10:35:18.389Z,25.14
2022-10-20T10:37:48.532Z,24.76
2022-10-20T10:40:19.887Z,25.47
2022-10-20T10:43:12.406Z,25.60
2022-10-20T10:45:52.748Z,25.35
2022-10-20T10:48:54.751Z,25.58
2022-10-20T10:51:32.376Z,25.99
2022-10-20T10:54:13.946Z,25.59
2022-10-20T10:56:48.797Z,25.77
2022-10-20T10:59:27.760Z,25.41
2022-10-20T11:02:18.460Z,24.91
2022-10-20T11:05:21.969Z,24.53
2022-10-20T11:07:59.068Z,23.63
2022-10-20T11:10:36.270Z,22.77
2022-10-20T11:13:23.072Z,22.76
2022-10-20T11:16:03.236Z,22.74
2022-10-20T11:18:55.098Z,22.51
2022-10-20T11:21:36.256Z,21.58
2022-10-20T11:24:18.781Z,21.47
2022-10-20T11:26:50.564Z,21.70
2022-10-20T11:29:23.017Z,21.21
2022-10-20T11:31:56.389Z,20.44
2022-10-20T11:34:31.312Z,20.66
2022-10-20T11:37:04.851Z,20.36
2022-10-20T11:39:46.801Z,20.41
2022-10-20T11:42:25.175Z,20.42
2022-10-20T11:44:55.724Z,20.08
2022-10-20T11:47:31.878Z,20.25
2022-10-20T11:50:05.045Z,19.43
2022-10-20T11:53:04.529Z,18.66
2022-10-20T11:55:44.561Z,18.74
2022-10-20T11:58:31.000Z,18.16
2022-10-20T12:01:18.533Z,17.82
2022-10-20T12:04:26.347Z,17.60
2022-10-20T12:07:21.780Z,17.54
2022-10-20T12:10:23.881Z,17.51
2022-10-20T12:12:59.679Z,18.24
2022-10-20T12:15:28.862Z,18.33
2022-10-20T12:18:00.847Z,18.84
2022-10-20T12:21:03.509Z,19.30
2022-10-20T12:24:05.040Z,19.70
2022-10-20T12:27:06.144Z,19.21
2022-10-20T12:29:54.646Z,19.02
2022-10-20T12:33:04.528Z,19.16
2022-10-20T12:36:02.032Z,19.62
2022-10-20T12:38:32.097Z,20.27
2022-10-20T12:41:02.390Z,20.31
2022-10-20T12:43:48.959Z,20.48
2022-10-20T12:46:24.454Z,20.29
2022-10-20T12:48:57.635Z,20.78
2022-10-20T12:51:34.622Z,21.22
2022-10-20T12:54:07.346Z,20.82
2022-10-20T12:56:39.741Z,20.64
2022-10-20T12:59:36.108Z,21.38
2022-10-20T13:02:41.243Z,21.52
2022-10-20T13:05:42.977Z,21.22
2022-10-20T13:08:24.404Z,21.45
2022-10-20T13:10:54.250Z,21.27
2022-10-20T13:13:45.105Z,21.66
2022-10-20T13:16:19.648Z,21.61
2022-10-20T13:18:50.794Z,21.53
2022-10-20T13:21:26.532Z,20.24
2022-10-20T13:24:03.852Z,21.57
2022-10-20T13:26:39.383Z,21.65
2022-10-20T13:29:30.179Z,22.14
2022-10-20T13:32:12.496Z,20.85
2022-10-20T13:34:46.810Z,20.38
2022-10-20T13:37:47.825Z,20.32
2022-10-20T13:40:25.485Z,19.92
2022-10-20T13:43:05.591Z,18.87
2022-10-20T13:45:47.783Z,19.15
2022-10-20T13:48:31.509Z,19.79
2022-10-20T13:51:03.647Z,18.99
2022-10-20T13:53:35.144Z,18.80
2022-10-20T13:56:07.723Z,18.72
2022-10-20T13:58:36.337Z,19.26
2022-10-20T14:01:07.012Z,19.34
2022-10-20T14:03:43.173Z,19.63
2022-10-20T14:06:32.488Z,19.19
2022-10-20T14:09:10.643Z,19.08
2022-10-20T14:11:41.872Z,18.15
2022-10-20T14:14:23.832Z,17.22
2022-10-20T14:16:55.689Z,16.71
2022-10-20T14:19:28.883Z,15.90
2022-10-20T14:22:11.229Z,14.63
2022-10-20T14:24:44.422Z,14.00
2022-10-20T14:27:20.527Z,12.93
2022-10-20T14:29:49.454Z,12.18
2022-10-20T14:32:20.186Z,11.31
2022-10-20T14:34:59.838Z,10.65
2022-10-20T14:37:32.700Z,10.29
2022-10-20T14:40:02.519Z,9.99
2022-10-20T14:42:34.052Z,9.91
2022-10-20T14:45:04.292Z,9.34
2022-10-20T14:47:39.496Z,9.13
2022-10-20T14:50:15.241Z,8.61
2022-10-20T14:52:43.807Z,8.69
2022-10-20T14:55:28.778Z,8.35
2022-10-20T14:57:58.301Z,7.97
2022-10-20T15:00:35.470Z,7.76
2022-10-20T15:03:08.121Z,7.46
2022-10-20T15:05:41.356Z,7.26
2022-10-20T15:08:22.242Z,7.11
2022-10-20T15:10:50.308Z,6.83
2022-10-20T15:13:29.196Z,6.54
2022-10-20T15:15:58.610Z,6.35
2022-10-20T15:18:28.362Z,6.10
2022-10-20T15:20:57.595Z,5.87
2022-10-20T15:23:27.172Z,5.71
2022-10-20T15:26:11.103Z,5.46
2022-10-20T15:28:51.034Z,5.26
2022-10-20T15:31:22.425Z,5.18
2022-10-20T15:33:50.652Z,5.25
2022-10-20T15:36:22.403Z,5.11
2022-10-20T15:38:50.800Z,4.92
2022-10-20T15:41:21.591Z,4.76
2022-10-20T15:43:50.768Z,4.54
2022-10-20T15:46:19.803Z,4.48
2022-10-20T15:48:48.584Z,4.21
2022-10-20T15:51:22.309Z,4.41
2022-10-20T15:53:50.280Z,4.06
2022-10-20T15:56:21.344Z,4.08
2022-10-20T15:58:51.241Z,3.97
2022-10-20T16:01:19.971Z,4.10
2022-10-20T16:03:48.774Z,4.10
2022-10-20T16:06:18.800Z,3.95
2022-10-20T16:08:48.516Z,3.77
2022-10-20T16:11:18.112Z,3.71
2022-10-20T16:13:46.308Z,3.57
2022-10-20T16:16:18.202Z,3.50
2022-10-20T16:18:46.674Z,3.43
2022-10-20T16:21:14.791Z,3.51
2022-10-20T16:23:44.903Z,3.25
2022-10-20T16:26:15.202Z,3.37
2022-10-20T16:28:43.329Z,3.25
2022-10-20T16:31:14.193Z,3.18
2022-10-20T16:33:43.744Z,3.16
2022-10-20T16:36:14.818Z,3.15
2022-10-20T16:38:43.678Z,3.06
2022-10-20T16:41:13.426Z,3.05
2022-10-20T16:43:42.994Z,3.02
2022-10-20T16:46:12.282Z,2.93
2022-10-20T16:48:42.781Z,2.90
2022-10-20T16:51:15.311Z,2.74
2022-10-20T16:53:43.481Z,2.69
2022-10-20T16:56:15.163Z,2.59
2022-10-20T16:58:48.698Z,2.45
2022-10-20T17:01:18.949Z,2.35
2022-10-20T17:03:48.262Z,2.27
2022-10-20T17:06:19.906Z,2.18
2022-10-20T17:08:48.234Z,2.01
2022-10-20T17:11:18.263Z,1.96
2022-10-20T17:13:46.263Z,1.95
2022-10-20T17:16:16.568Z,1.94
2022-10-20T17:18:45.692Z,1.52
2022-10-20T17:21:15.466Z,1.65
2022-10-20T17:23:46.135Z,1.74
2022-10-20T17:26:16.804Z,1.67
2022-10-20T17:28:45.535Z,1.65
2022-10-20T17:33:46.153Z,1.34
2022-10-20T17:36:14.666Z,1.50
2022-10-20T17:38:44.810Z,1.39
2022-10-20T17:41:15.224Z,1.39
2022-10-20T17:43:43.380Z,1.32
2022-10-20T17:46:15.411Z,1.31
2022-10-20T17:48:43.409Z,1.34
2022-10-20T17:51:13.297Z,1.29
2022-10-20T17:53:43.679Z,1.22
2022-10-20T17:56:16.417Z,1.20
2022-10-20T17:58:46.072Z,1.17
2022-10-20T18:01:23.384Z,1.14
2022-10-20T18:03:56.403Z,1.12
2022-10-20T18:06:31.175Z,0.99
2022-10-20T18:09:03.194Z,0.87
2022-10-20T18:11:35.394Z,1.01
2022-10-20T18:14:04.134Z,0.88
2022-10-20T18:16:37.447Z,0.93
2022-10-20T18:19:16.374Z,0.88
2022-10-20T18:21:44.738Z,0.91
2022-10-20T18:24:17.544Z,0.65
2022-10-20T18:26:48.069Z,0.84
2022-10-20T18:29:17.730Z,0.68
2022-10-20T18:31:48.009Z,0.79
2022-10-20T18:34:20.821Z,0.78
2022-10-20T18:36:49.959Z,0.70
2022-10-20T18:39:18.007Z,0.74
2022-10-20T18:41:47.723Z,0.65
2022-10-20T18:44:18.022Z,0.76
2022-10-20T18:46:47.299Z,0.78
2022-10-20T18:49:19.733Z,0.77
2022-10-20T18:51:48.583Z,0.80
2022-10-20T18:54:18.491Z,0.65
2022-10-20T18:56:48.290Z,0.77
2022-10-20T18:59:17.279Z,0.65
2022-10-20T19:01:45.996Z,0.70
2022-10-20T19:04:14.680Z,0.63
2022-10-20T19:06:44.177Z,0.58
2022-10-20T19:09:14.764Z,0.58
2022-10-20T19:11:44.259Z,0.53
2022-10-20T19:14:14.126Z,0.44
2022-10-20T19:16:46.286Z,0.46
2022-10-20T19:19:15.001Z,0.26
2022-10-20T19:21:43.261Z,0.38
2022-10-20T19:24:14.641Z,0.29
2022-10-20T19:26:52.529Z,0.17
2022-10-20T19:29:26.729Z,0.35
2022-10-20T19:31:57.055Z,0.32
2022-10-20T19:34:28.301Z,0.31
2022-10-20T19:37:00.320Z,0.33
2022-10-20T19:39:30.362Z,0.23
2022-10-20T19:42:01.323Z,0.34
2022-10-20T19:44:34.486Z,0.33
2022-10-20T19:47:05.112Z,0.09
2022-10-20T19:49:37.747Z,0.23
2022-10-20T19:52:06.776Z,0.29
2022-10-20T19:54:35.039Z,0.39
2022-10-20T19:57:03.020Z,0.37
2022-10-20T19:59:32.483Z,0.24
2022-10-20T20:02:00.666Z,0.40
2022-10-20T20:04:28.814Z,0.35
2022-10-20T20:07:01.762Z,0.23
2022-10-20T20:09:30.834Z,0.30
2022-10-20T20:11:59.388Z,0.22
2022-10-20T20:14:29.592Z,0.18
2022-10-20T20:16:59.357Z,0.10
2022-10-20T20:19:27.441Z,-0.09
2022-10-20T20:21:55.322Z,0.21
2022-10-20T20:24:38.107Z,0.04
2022-10-20T20:27:12.146Z,-0.12
2022-10-20T20:29:40.248Z,-0.17
2022-10-20T20:32:11.799Z,0.11
2022-10-20T20:34:42.673Z,0.19
2022-10-20T20:37:10.747Z,0.20
2022-10-20T20:39:38.588Z,0.22
2022-10-20T20:42:06.603Z,0.20
2022-10-20T20:44:34.586Z,0.30
2022-10-20T20:47:02.630Z,0.30
2022-10-20T20:49:31.912Z,0.36
2022-10-20T20:51:59.728Z,0.42
2022-10-20T20:54:30.781Z,0.48
2022-10-20T20:57:01.295Z,0.60
2022-10-20T20:59:29.165Z,0.69
2022-10-20T21:01:57.011Z,0.79
2022-10-20T21:04:28.306Z,0.81
2022-10-20T21:07:03.042Z,0.95
2022-10-20T21:09:31.661Z,1.01
2022-10-20T21:11:59.576Z,1.15
2022-10-20T21:14:27.819Z,1.24
2022-10-20T21:16:55.831Z,1.32
2022-10-20T21:19:24.126Z,1.41
2022-10-20T21:21:57.191Z,1.42
2022-10-20T21:24:27.168Z,1.59
2022-10-20T21:26:55.730Z,1.57
2022-10-20T21:29:23.759Z,1.72
2022-10-20T21:31:51.983Z,1.80
2022-10-20T21:34:20.028Z,1.89
2022-10-20T21:36:48.118Z,1.96
2022-10-20T21:39:17.075Z,2.06
2022-10-20T21:41:47.493Z,2.12
2022-10-20T21:44:15.857Z,2.12
2022-10-20T21:46:47.594Z,2.16
2022-10-20T21:49:18.009Z,2.22
2022-10-20T21:51:48.099Z,2.33
2022-10-20T21:54:17.950Z,2.41
2022-10-20T21:56:48.062Z,2.38
2022-10-20T21:59:19.221Z,2.40
2022-10-20T22:01:47.686Z,2.42
2022-10-20T22:04:16.049Z,2.63
2022-10-20T22:06:44.475Z,2.64
2022-10-20T22:09:14.760Z,2.70
2022-10-20T22:11:56.887Z,2.66
2022-10-20T22:14:25.011Z,2.92
2022-10-20T22:16:55.410Z,2.96
2022-10-20T22:19:24.288Z,3.06
2022-10-20T22:21:53.843Z,3.13
2022-10-20T22:24:22.662Z,3.25
2022-10-20T22:26:53.495Z,3.32
2022-10-20T22:34:53.827Z,3.85
2022-10-20T22:37:21.744Z,3.91
2022-10-20T22:39:49.655Z,4.11
2022-10-20T22:42:21.302Z,4.34
2022-10-20T22:44:52.021Z,4.37
2022-10-20T22:47:20.002Z,4.37
2022-10-20T22:49:47.907Z,4.48
2022-10-20T22:52:16.427Z,4.58
2022-10-20T22:54:44.316Z,4.53
2022-10-20T22:57:12.334Z,4.76
2022-10-20T22:59:43.945Z,4.89
2022-10-20T23:02:11.806Z,5.02
2022-10-20T23:04:39.771Z,5.07
2022-10-20T23:07:07.547Z,5.09
2022-10-20T23:09:35.832Z,5.11
2022-10-20T23:12:03.821Z,5.06
2022-10-20T23:14:31.753Z,5.03
2022-10-20T23:17:01.045Z,4.96
2022-10-20T23:19:28.972Z,4.94
2022-10-20T23:21:56.951Z,4.92
2022-10-20T23:24:24.827Z,4.93
2022-10-20T23:26:52.848Z,4.93
2022-10-20T23:29:21.114Z,4.93
2022-10-20T23:31:48.965Z,4.70
2022-10-20T23:34:18.175Z,4.89
2022-10-20T23:36:46.344Z,4.89
2022-10-20T23:39:14.322Z,4.90
2022-10-20T23:41:42.229Z,4.90
2022-10-20T23:44:10.165Z,4.92
2022-10-20T23:46:38.347Z,4.92
2022-10-20T23:49:08.156Z,4.93
2022-10-20T23:51:37.651Z,4.84
2022-10-20T23:54:05.516Z,4.94
2022-10-20T23:56:33.710Z,4.94
2022-10-20T23:59:01.591Z,4.94
